createdAt,value
2018-11-10T00:00:06.220Z,5.9
2018-11-10T00:03:06.312Z,5.3
2018-11-10T00:06:06.142Z,5.5
2018-11-10T00:09:06.224Z,4.8
2018-11-10T00:12:06.017Z,5.2
2018-11-10T00:15:06.321Z,5.2
2018-11-10T00:18:06.244Z,5.3
2018-11-10T00:21:06.091Z,5.3
2018-11-10T00:24:06.282Z,5.5
2018-11-10T00:27:06.268Z,5.4
2018-11-10T00:30:06.239Z,5.5
2018-11-10T00:33:06.198Z,5.4
2018-11-10T00:36:06.332Z,5.3
2018-11-10T00:39:06.101Z,5.6
2018-11-10T00:42:06.071Z,5.2
2018-11-10T00:45:06.272Z,5.4
2018-11-10T00:48:06.206Z,5.2
2018-11-10T00:51:06.162Z,5.4
2018-11-10T00:54:06.470Z,5.6
2018-11-10T00:57:06.244Z,5
2018-11-10T01:00:06.137Z,5.2
2018-11-10T01:03:06.208Z,5.2
2018-11-10T01:06:06.188Z,5.3
2018-11-10T01:09:05.967Z,5
2018-11-10T01:12:06.133Z,5.7
2018-11-10T01:15:06.349Z,5.8
2018-11-10T01:18:06.100Z,5.4
2018-11-10T01:21:06.281Z,5.1
2018-11-10T01:24:06.229Z,4.8
2018-11-10T01:27:06.140Z,5.5
2018-11-10T01:30:06.190Z,5.2
2018-11-10T01:33:06.445Z,5.6
2018-11-10T01:36:05.939Z,5.2
2018-11-10T01:39:06.094Z,5.9
2018-11-10T01:42:06.383Z,5.2
2018-11-10T01:45:06.392Z,4.9
2018-11-10T01:48:06.322Z,5.9
2018-11-10T01:51:06.079Z,5.4
2018-11-10T01:54:06.141Z,5.2
2018-11-10T01:57:05.990Z,5.4
2018-11-10T02:00:06.100Z,5.2
2018-11-10T02:03:06.422Z,5.9
2018-11-10T02:06:05.998Z,5.8
2018-11-10T02:09:06.028Z,6
2018-11-10T02:12:06.209Z,5.3
2018-11-10T02:15:06.088Z,5.5
2018-11-10T02:18:06.163Z,5.3
2018-11-10T02:21:06.275Z,5.3
2018-11-10T02:24:06.145Z,5.5
2018-11-10T02:27:06.166Z,5.6
2018-11-10T02:30:06.168Z,5.5
2018-11-10T02:33:06.147Z,5.7
2018-11-10T02:36:06.133Z,5.4
2018-11-10T02:39:06.351Z,5.5
2018-11-10T02:42:06.582Z,5.3
2018-11-10T02:45:06.324Z,5.5
2018-11-10T02:48:06.223Z,5.6
2018-11-10T02:51:06.459Z,5.4
2018-11-10T02:54:06.256Z,5.4
2018-11-10T02:57:06.340Z,5.8
2018-11-10T03:00:06.603Z,5.5
2018-11-10T03:03:06.357Z,5.5
2018-11-10T03:06:06.149Z,5.4
2018-11-10T03:09:06.102Z,5.7
2018-11-10T03:12:06.090Z,6.3
2018-11-10T03:15:06.063Z,5.5
2018-11-10T03:18:06.213Z,5.6
2018-11-10T03:21:06.164Z,5.9
2018-11-10T03:24:06.151Z,5.6
2018-11-10T03:27:06.126Z,6
2018-11-10T03:30:06.917Z,5.7
2018-11-10T03:33:06.068Z,6.2
2018-11-10T03:36:06.122Z,5.9
2018-11-10T03:39:06.272Z,6.1
2018-11-10T03:42:05.944Z,5.6
2018-11-10T03:45:06.155Z,5.4
2018-11-10T03:48:06.088Z,5.8
2018-11-10T03:51:06.297Z,5.7
2018-11-10T03:54:06.142Z,6
2018-11-10T03:57:06.048Z,5.9
2018-11-10T04:00:06.168Z,5.7
2018-11-10T04:03:06.107Z,6.1
2018-11-10T04:06:06.768Z,5.7
2018-11-10T04:09:06.310Z,5.6
2018-11-10T04:12:06.047Z,5.7
2018-11-10T04:15:06.352Z,5.3
2018-11-10T04:18:06.208Z,6.3
2018-11-10T04:21:06.534Z,5.7
2018-11-10T04:24:06.250Z,5.7
2018-11-10T04:27:06.174Z,5.6
2018-11-10T04:30:06.206Z,5.8
2018-11-10T04:33:05.910Z,5.6
2018-11-10T04:36:06.053Z,6.1
2018-11-10T04:39:06.412Z,5.9
2018-11-10T04:42:06.040Z,5.7
2018-11-10T04:45:06.101Z,5.5
2018-11-10T04:48:06.259Z,5.4
2018-11-10T04:51:05.948Z,5.6
2018-11-10T04:54:06.423Z,5.9
2018-11-10T04:57:06.087Z,5.3
2018-11-10T05:00:06.213Z,5.1
2018-11-10T05:03:05.965Z,5.4
2018-11-10T05:06:06.329Z,5.4
2018-11-10T05:09:06.023Z,5.1
2018-11-10T05:12:05.944Z,5.2
2018-11-10T05:15:06.058Z,5
2018-11-10T05:18:06.185Z,4.6
2018-11-10T05:21:06.230Z,5.2
2018-11-10T05:24:06.070Z,4.8
2018-11-10T05:27:06.150Z,4.9
2018-11-10T05:30:06.068Z,4.7
2018-11-10T05:33:06.238Z,4.8
2018-11-10T05:36:06.027Z,4.6
2018-11-10T05:39:06.183Z,4.7
2018-11-10T05:42:06.051Z,4.8
2018-11-10T05:45:06.163Z,4.4
2018-11-10T05:48:06.200Z,4.4
2018-11-10T05:51:05.934Z,4.5
2018-11-10T05:54:06.004Z,4.6
2018-11-10T05:57:07.489Z,4.4
2018-11-10T06:00:06.136Z,4.5
2018-11-10T06:03:07.402Z,4.4
2018-11-10T06:06:06.050Z,4.4
2018-11-10T06:09:07.117Z,4.6
2018-11-10T06:12:06.129Z,4.4
2018-11-10T06:15:05.949Z,4.5
2018-11-10T06:18:06.186Z,4.3
2018-11-10T06:21:06.033Z,4.3
2018-11-10T06:24:06.045Z,4.4
2018-11-10T06:27:06.017Z,4.1
2018-11-10T06:30:05.954Z,4.4
2018-11-10T06:33:06.215Z,4.3
2018-11-10T06:36:06.208Z,4.3
2018-11-10T06:39:06.035Z,4.1
2018-11-10T06:42:06.297Z,3.9
2018-11-10T06:45:06.000Z,3.9
2018-11-10T06:48:06.385Z,4
2018-11-10T06:51:05.993Z,4.2
2018-11-10T06:54:06.064Z,4
2018-11-10T06:57:06.329Z,4.1
2018-11-10T07:00:06.146Z,4.1
2018-11-10T07:03:06.090Z,4
2018-11-10T07:06:06.133Z,4.2
2018-11-10T07:09:05.928Z,3.9
2018-11-10T07:12:06.170Z,4.2
2018-11-10T07:15:05.943Z,3.9
2018-11-10T07:18:07.865Z,4.2
2018-11-10T07:21:06.171Z,4
2018-11-10T07:24:06.170Z,3.8
2018-11-10T07:27:05.822Z,3.9
2018-11-10T07:30:06.048Z,3.7
2018-11-10T07:33:05.963Z,4.9
2018-11-10T07:36:06.165Z,4.4
2018-11-10T07:39:05.962Z,4.4
2018-11-10T07:42:06.110Z,4.3
2018-11-10T07:45:06.388Z,4.1
2018-11-10T07:48:05.860Z,4.6
2018-11-10T07:51:06.266Z,4.9
2018-11-10T07:54:05.999Z,4.9
2018-11-10T07:57:05.855Z,3.8
2018-11-10T08:00:05.923Z,3.8
2018-11-10T08:03:06.059Z,4.9
2018-11-10T08:06:06.292Z,4.1
2018-11-10T08:09:06.060Z,3.7
2018-11-10T08:12:06.321Z,3.9
2018-11-10T08:15:06.004Z,3.6
2018-11-10T08:18:05.920Z,3.6
2018-11-10T08:21:06.141Z,4.4
2018-11-10T08:24:06.062Z,3.5
2018-11-10T08:27:05.970Z,4
2018-11-10T08:30:05.845Z,3.5
2018-11-10T08:33:06.253Z,3.7
2018-11-10T08:36:06.141Z,10.2
2018-11-10T08:39:06.627Z,10.4
2018-11-10T08:42:05.948Z,7.1
2018-11-10T08:45:05.982Z,5.1
2018-11-10T08:48:05.769Z,3.8
2018-11-10T08:51:06.177Z,5.3
2018-11-10T08:54:06.125Z,4.4
2018-11-10T08:57:05.896Z,4.4
2018-11-10T09:00:06.362Z,5.4
2018-11-10T09:03:05.965Z,5.7
2018-11-10T09:06:06.134Z,5.7
2018-11-10T09:09:05.948Z,4.3
2018-11-10T09:12:06.160Z,3.6
2018-11-10T09:15:07.801Z,3.6
2018-11-10T09:18:06.013Z,4.7
2018-11-10T09:21:07.810Z,4.2
2018-11-10T09:24:06.052Z,4.2
2018-11-10T09:27:05.892Z,4.3
2018-11-10T09:30:05.877Z,7.3
2018-11-10T09:33:05.814Z,4.3
2018-11-10T09:36:05.961Z,4.8
2018-11-10T09:39:05.919Z,3.7
2018-11-10T09:42:07.887Z,4.9
2018-11-10T09:48:48.357Z,5.7
2018-11-10T09:51:48.302Z,5.2
2018-11-10T09:54:48.272Z,4
2018-11-10T09:57:48.087Z,4.9
2018-11-10T10:00:48.276Z,5.8
2018-11-10T10:03:48.016Z,4.4
2018-11-10T10:06:48.079Z,4.4
2018-11-10T10:09:48.503Z,5.4
2018-11-10T10:12:48.096Z,3.5
2018-11-10T10:15:48.277Z,3.9
2018-11-10T10:18:48.283Z,4.2
2018-11-10T10:21:49.563Z,3.8
2018-11-10T10:24:48.289Z,3.8
2018-11-10T10:27:48.059Z,3.8
2018-11-10T10:30:48.121Z,3.6
2018-11-10T10:44:15.078Z,3.8
2018-11-10T10:50:46.023Z,4
2018-11-10T10:53:45.964Z,4.3
2018-11-10T10:56:46.453Z,3.9
2018-11-10T10:59:45.908Z,3.6
2018-11-10T11:02:46.541Z,3.9
2018-11-10T11:05:46.016Z,3.8
2018-11-10T11:08:46.563Z,4.1
2018-11-10T11:11:45.865Z,4.6
2018-11-10T11:14:46.439Z,5.5
2018-11-10T11:17:46.093Z,3.5
2018-11-10T11:20:46.611Z,3.9
2018-11-10T11:23:45.847Z,4.2
2018-11-10T11:26:46.028Z,4.4
2018-11-10T11:29:48.153Z,4
2018-11-10T11:32:46.398Z,5.8
2018-11-10T11:35:45.985Z,3.7
2018-11-10T11:38:45.847Z,3.7
2018-11-10T11:41:48.092Z,4
2018-11-10T11:44:45.902Z,3.5
2018-11-10T11:47:46.125Z,4.6
2018-11-10T11:50:46.171Z,5.6
2018-11-10T11:53:46.058Z,3.8
2018-11-10T11:56:45.765Z,4
2018-11-10T11:59:46.399Z,4.7
2018-11-10T12:02:46.114Z,3.9
2018-11-10T12:05:46.422Z,3.7
2018-11-10T12:08:46.065Z,3.6
2018-11-10T12:11:46.354Z,3.9
2018-11-10T12:14:46.115Z,3.4
2018-11-10T12:17:45.990Z,3.8
2018-11-10T12:20:48.070Z,3.3
2018-11-10T12:23:46.286Z,5
2018-11-10T12:26:46.986Z,3.4
2018-11-10T12:29:46.068Z,3.3
2018-11-10T12:32:45.977Z,3.2
2018-11-10T12:35:45.942Z,3.5
2018-11-10T12:38:46.874Z,3.3
2018-11-10T12:41:46.552Z,3.8
2018-11-10T12:44:45.903Z,3.5
2018-11-10T12:47:45.944Z,3.2
2018-11-10T12:50:45.983Z,3.2
2018-11-10T12:53:45.815Z,3.8
2018-11-10T12:56:46.044Z,3.1
2018-11-10T12:59:46.125Z,3.1
2018-11-10T13:02:46.062Z,3.3
2018-11-10T13:05:45.958Z,3.1
2018-11-10T13:08:46.240Z,3.1
2018-11-10T13:11:49.171Z,3.2
2018-11-10T13:14:46.162Z,3
2018-11-10T13:17:47.198Z,3.6
2018-11-10T13:20:46.664Z,3.2
2018-11-10T13:23:46.066Z,3.3
2018-11-10T13:26:45.941Z,4.7
2018-11-10T13:29:45.934Z,3.4
2018-11-10T13:32:45.956Z,3.5
2018-11-10T13:35:46.208Z,7.7
2018-11-10T13:38:46.950Z,3.5
2018-11-10T13:41:45.984Z,3.5
2018-11-10T13:44:46.039Z,3.9
2018-11-10T13:47:46.082Z,3.3
2018-11-10T13:50:49.186Z,3.6
2018-11-10T13:53:46.148Z,2.9
2018-11-10T13:56:46.061Z,3
2018-11-10T13:59:45.996Z,3
2018-11-10T14:02:45.818Z,3.2
2018-11-10T14:05:45.894Z,2.9
2018-11-10T14:08:45.903Z,3.3
2018-11-10T14:11:45.799Z,3.2
2018-11-10T14:14:45.892Z,2.9
2018-11-10T14:17:46.316Z,3.6
2018-11-10T14:20:47.962Z,3.6
2018-11-10T14:23:45.743Z,3.9
2018-11-10T14:26:46.079Z,2.9
2018-11-10T14:29:46.181Z,3.2
2018-11-10T14:32:45.788Z,3
2018-11-10T14:35:45.943Z,3.1
2018-11-10T14:38:46.041Z,2.8
2018-11-10T14:41:46.066Z,3.2
2018-11-10T14:44:45.836Z,3.2
2018-11-10T14:47:45.946Z,2.9
2018-11-10T14:50:45.901Z,3.1
2018-11-10T14:53:45.879Z,4.2
2018-11-10T14:56:46.061Z,4
2018-11-10T14:59:46.007Z,4.3
2018-11-10T15:02:46.029Z,3.4
2018-11-10T15:05:47.708Z,3.9
2018-11-10T15:08:45.927Z,3.5
2018-11-10T15:11:48.436Z,3.4
2018-11-10T15:14:46.382Z,4.8
2018-11-10T15:17:49.122Z,6.3
2018-11-10T15:20:45.912Z,5.5
2018-11-10T15:23:45.938Z,4.3
2018-11-10T15:26:45.767Z,3.6
2018-11-10T15:29:45.723Z,3.8
2018-11-10T15:32:46.060Z,3
2018-11-10T15:35:45.812Z,3.7
2018-11-10T15:38:45.858Z,3.4
2018-11-10T15:41:46.039Z,4
2018-11-10T15:44:45.713Z,3.2
2018-11-10T15:47:45.724Z,3.3
2018-11-10T15:50:45.956Z,3.3
2018-11-10T15:53:45.851Z,3.9
2018-11-10T15:56:46.085Z,3.1
2018-11-10T15:59:46.073Z,2.7
2018-11-10T16:02:45.909Z,3.1
2018-11-10T16:05:45.792Z,4.6
2018-11-10T16:08:45.955Z,3.1
2018-11-10T16:11:45.868Z,3.1
2018-11-10T16:14:46.032Z,3
2018-11-10T16:17:45.989Z,3
2018-11-10T16:20:47.179Z,3.1
2018-11-10T16:23:45.703Z,3.7
2018-11-10T16:26:46.286Z,2.9
2018-11-10T16:29:45.924Z,3.2
2018-11-10T16:32:45.847Z,3.1
2018-11-10T16:35:45.868Z,2.8
2018-11-10T16:38:46.133Z,3.1
2018-11-10T16:41:45.824Z,3.1
2018-11-10T16:44:47.088Z,2.8
2018-11-10T16:47:46.013Z,3
2018-11-10T16:50:45.888Z,2.8
2018-11-10T16:53:46.231Z,2.9
2018-11-10T16:56:45.902Z,3.5
2018-11-10T16:59:45.835Z,3.7
2018-11-10T17:02:45.801Z,3
2018-11-10T17:05:45.927Z,3
2018-11-10T17:08:47.361Z,2.7
2018-11-10T17:11:46.007Z,2.9
2018-11-10T17:14:45.882Z,3.1
2018-11-10T17:17:45.790Z,3.1
2018-11-10T17:20:46.511Z,3.3
2018-11-10T17:23:45.710Z,3
2018-11-10T17:26:45.957Z,2.8
2018-11-10T17:29:45.923Z,2.9
2018-11-10T17:32:46.173Z,3.1
2018-11-10T17:35:46.178Z,2.9
2018-11-10T17:38:46.674Z,2.9
2018-11-10T17:41:46.046Z,2.8
2018-11-10T17:44:45.742Z,3.8
2018-11-10T17:47:46.324Z,2.8
2018-11-10T17:50:45.819Z,2.9
2018-11-10T17:53:46.041Z,2.9
2018-11-10T17:56:46.011Z,2.9
2018-11-10T17:59:46.229Z,2.9
2018-11-10T18:02:45.957Z,2.7
2018-11-10T18:05:45.685Z,2.9
2018-11-10T18:08:45.769Z,3.3
2018-11-10T18:11:45.800Z,2.8
2018-11-10T18:14:45.752Z,2.7
2018-11-10T18:17:45.788Z,2.8
2018-11-10T18:20:45.898Z,2.7
2018-11-10T18:23:45.701Z,2.9
2018-11-10T18:26:45.785Z,2.7
2018-11-10T18:29:46.776Z,2.7
2018-11-10T18:32:48.173Z,2.8
2018-11-10T18:35:46.000Z,2.9
2018-11-10T18:38:45.828Z,2.8
2018-11-10T18:41:46.257Z,3.1
2018-11-10T18:44:45.793Z,2.8
2018-11-10T18:47:45.864Z,3.1
2018-11-10T18:50:45.892Z,2.7
2018-11-10T18:53:45.725Z,2.7
2018-11-10T18:56:46.035Z,3
2018-11-10T18:59:46.002Z,2.8
2018-11-10T19:02:46.128Z,2.7
2018-11-10T19:05:46.272Z,3.3
2018-11-10T19:08:46.119Z,2.9
2018-11-10T19:11:45.759Z,2.8
2018-11-10T19:14:45.834Z,3
2018-11-10T19:17:46.282Z,2.7
2018-11-10T19:20:45.795Z,2.8
2018-11-10T19:23:45.730Z,2.6
2018-11-10T19:26:45.807Z,2.8
2018-11-10T19:29:45.734Z,2.8
2018-11-10T19:32:45.939Z,2.8
2018-11-10T19:35:45.975Z,2.8
2018-11-10T19:38:45.676Z,2.8
2018-11-10T19:41:45.937Z,2.8
2018-11-10T19:44:45.681Z,2.8
2018-11-10T19:47:45.896Z,2.7
2018-11-10T19:50:48.015Z,2.8
2018-11-10T19:53:45.854Z,3
2018-11-10T19:56:45.711Z,2.6
2018-11-10T19:59:45.698Z,3.2
2018-11-10T20:02:45.818Z,2.9
2018-11-10T20:05:45.815Z,2.8
2018-11-10T20:08:45.985Z,2.8
2018-11-10T20:11:46.285Z,3
2018-11-10T20:14:45.759Z,2.8
2018-11-10T20:17:45.823Z,2.8
2018-11-10T20:20:45.934Z,2.8
2018-11-10T20:23:45.755Z,3.1
2018-11-10T20:26:45.730Z,2.8
2018-11-10T20:29:45.863Z,2.8
2018-11-10T20:32:47.575Z,2.8
2018-11-10T20:35:46.024Z,2.8
2018-11-10T20:38:46.740Z,3
2018-11-10T20:41:45.988Z,2.8
2018-11-10T20:44:46.682Z,2.9
2018-11-10T20:47:45.926Z,2.8
2018-11-10T20:50:45.960Z,2.8
2018-11-10T20:53:45.885Z,3.1
2018-11-10T20:56:45.768Z,2.6
2018-11-10T20:59:45.719Z,2.7
2018-11-10T21:02:46.016Z,3
2018-11-10T21:05:46.940Z,2.8
2018-11-10T21:08:46.062Z,2.7
2018-11-10T21:11:45.631Z,2.8
2018-11-10T21:14:45.667Z,2.9
2018-11-10T21:17:45.840Z,2.8
2018-11-10T21:20:45.735Z,2.9
2018-11-10T21:23:45.728Z,2.9
2018-11-10T21:26:46.311Z,2.8
2018-11-10T21:29:48.220Z,3
2018-11-10T21:32:45.872Z,2.9
2018-11-10T21:35:46.067Z,2.8
2018-11-10T21:38:45.820Z,2.7
2018-11-10T21:41:45.755Z,2.9
2018-11-10T21:44:45.925Z,2.9
2018-11-10T21:47:45.867Z,2.8
2018-11-10T21:50:45.903Z,2.7
2018-11-10T21:53:45.728Z,2.8
2018-11-10T21:56:45.683Z,2.6
2018-11-10T21:59:46.306Z,3.1
2018-11-10T22:02:47.060Z,2.8
2018-11-10T22:05:45.835Z,2.7
2018-11-10T22:08:47.274Z,2.8
2018-11-10T22:11:45.998Z,2.8
2018-11-10T22:14:45.680Z,3
2018-11-10T22:17:45.811Z,2.8
2018-11-10T22:20:46.304Z,2.9
2018-11-10T22:23:45.639Z,2.8
2018-11-10T22:26:45.571Z,2.9
2018-11-10T22:29:46.102Z,2.7
2018-11-10T22:32:45.916Z,2.8
2018-11-10T22:35:45.661Z,2.9
2018-11-10T22:38:45.660Z,2.8
2018-11-10T22:41:45.713Z,3.6
2018-11-10T22:44:46.065Z,3.2
2018-11-10T22:47:46.043Z,3.1
2018-11-10T22:50:45.897Z,3.7
2018-11-10T22:53:45.564Z,3.1
2018-11-10T22:56:46.388Z,3.1
2018-11-10T22:59:45.780Z,3.1
2018-11-10T23:02:46.071Z,3.3
2018-11-10T23:05:45.805Z,3.7
2018-11-10T23:08:46.044Z,3
2018-11-10T23:11:46.007Z,2.6
2018-11-10T23:14:45.790Z,3.1
2018-11-10T23:17:45.725Z,2.8
2018-11-10T23:20:45.742Z,2.8
2018-11-10T23:23:45.762Z,3.8
2018-11-10T23:26:46.036Z,2.8
2018-11-10T23:29:45.764Z,3
2018-11-10T23:32:45.778Z,2.9
2018-11-10T23:35:45.687Z,3
2018-11-10T23:38:45.826Z,3.1
2018-11-10T23:41:45.671Z,2.6
2018-11-10T23:44:46.189Z,2.9
2018-11-10T23:47:46.108Z,2.8
2018-11-10T23:50:46.208Z,2.8
2018-11-10T23:53:46.039Z,2.9
2018-11-10T23:56:45.597Z,2.7
2018-11-10T23:59:45.892Z,2.7
